createdAt,value
2022-10-13T00:02:22.631Z,8.73
2022-10-13T00:04:51.761Z,8.78
2022-10-13T00:07:19.798Z,8.69
2022-10-13T00:09:47.557Z,8.72
2022-10-13T00:12:15.701Z,8.72
2022-10-13T00:14:43.726Z,8.72
2022-10-13T00:17:11.597Z,8.73
2022-10-13T00:19:39.353Z,8.78
2022-10-13T00:22:08.501Z,8.70
2022-10-13T00:24:36.252Z,8.75
2022-10-13T00:27:04.293Z,8.75
2022-10-13T00:29:32.028Z,8.79
2022-10-13T00:31:59.726Z,8.77
2022-10-13T00:34:27.613Z,8.72
2022-10-13T00:36:55.282Z,8.74
2022-10-13T00:39:24.350Z,8.74
2022-10-13T00:41:54.373Z,8.78
2022-10-13T00:44:59.589Z,8.79
2022-10-13T00:47:29.747Z,8.79
2022-10-13T00:49:58.562Z,8.77
2022-10-13T00:52:27.851Z,8.79
2022-10-13T00:54:57.679Z,8.77
2022-10-13T00:57:27.107Z,8.75
2022-10-13T00:59:55.132Z,8.75
2022-10-13T01:02:24.927Z,8.77
2022-10-13T01:04:53.929Z,8.75
2022-10-13T01:07:21.748Z,8.73
2022-10-13T01:09:49.447Z,8.78
2022-10-13T01:12:31.700Z,8.74
2022-10-13T01:15:06.767Z,8.76
2022-10-13T01:17:38.492Z,8.82
2022-10-13T01:20:42.945Z,8.79
2022-10-13T01:23:23.986Z,8.85
2022-10-13T01:26:07.527Z,8.85
2022-10-13T01:29:02.808Z,8.80
2022-10-13T01:31:38.602Z,8.83
2022-10-13T01:34:10.795Z,8.77
2022-10-13T01:36:48.542Z,8.75
2022-10-13T01:39:25.177Z,8.75
2022-10-13T01:41:57.958Z,8.79
2022-10-13T01:44:30.276Z,8.77
2022-10-13T01:47:02.155Z,8.75
2022-10-13T01:49:34.435Z,8.77
2022-10-13T01:52:05.408Z,8.75
2022-10-13T01:54:34.144Z,8.75
2022-10-13T01:57:01.841Z,8.76
2022-10-13T01:59:33.754Z,8.81
2022-10-13T02:02:11.964Z,8.75
2022-10-13T02:04:52.472Z,8.82
2022-10-13T02:07:24.571Z,8.76
2022-10-13T02:09:59.899Z,8.76
2022-10-13T02:12:33.516Z,8.75
2022-10-13T02:15:02.257Z,8.73
2022-10-13T02:17:32.258Z,8.71
2022-10-13T02:20:00.562Z,8.74
2022-10-13T02:22:33.529Z,8.73
2022-10-13T02:25:03.338Z,8.70
2022-10-13T02:27:31.108Z,8.69
2022-10-13T02:29:59.451Z,8.64
2022-10-13T02:32:32.274Z,8.67
2022-10-13T02:35:00.024Z,8.64
2022-10-13T02:37:27.917Z,8.68
2022-10-13T02:39:55.862Z,8.65
2022-10-13T02:42:23.741Z,8.67
2022-10-13T02:44:56.573Z,8.61
2022-10-13T02:47:24.280Z,8.67
2022-10-13T02:49:53.320Z,8.69
2022-10-13T02:52:22.408Z,8.70
2022-10-13T02:54:50.257Z,8.69
2022-10-13T02:57:18.586Z,8.68
2022-10-13T02:59:46.674Z,8.70
2022-10-13T03:02:14.642Z,8.71
2022-10-13T03:04:42.375Z,8.72
2022-10-13T03:07:11.756Z,8.72
2022-10-13T03:09:39.427Z,8.75
2022-10-13T03:12:07.658Z,8.76
2022-10-13T03:14:36.597Z,8.78
2022-10-13T03:17:04.447Z,8.72
2022-10-13T03:19:32.509Z,8.71
2022-10-13T03:22:00.194Z,8.73
2022-10-13T03:24:29.441Z,8.75
2022-10-13T03:26:57.183Z,8.76
2022-10-13T03:29:25.005Z,8.75
2022-10-13T03:31:52.770Z,8.79
2022-10-13T03:34:21.089Z,8.76
2022-10-13T03:36:48.757Z,8.76
2022-10-13T03:39:16.567Z,8.73
2022-10-13T03:41:46.101Z,8.74
2022-10-13T03:44:14.447Z,8.74
2022-10-13T03:46:42.455Z,8.72
2022-10-13T03:49:11.152Z,8.73
2022-10-13T03:51:39.304Z,8.70
2022-10-13T03:54:07.134Z,8.71
2022-10-13T03:56:35.837Z,8.70
2022-10-13T03:59:05.055Z,8.70
2022-10-13T04:01:34.198Z,8.73
2022-10-13T04:04:03.203Z,8.72
2022-10-13T04:06:31.828Z,8.71
2022-10-13T04:08:59.650Z,8.71
2022-10-13T04:11:27.385Z,8.71
2022-10-13T04:13:56.997Z,8.72
2022-10-13T04:16:27.857Z,8.72
2022-10-13T04:18:59.740Z,8.75
2022-10-13T04:21:28.288Z,8.76
2022-10-13T04:23:58.121Z,8.76
2022-10-13T04:26:27.835Z,8.73
2022-10-13T04:28:56.714Z,8.76
2022-10-13T04:31:26.443Z,8.78
2022-10-13T04:33:54.496Z,8.80
2022-10-13T04:36:22.578Z,8.77
2022-10-13T04:38:51.199Z,8.76
2022-10-13T04:41:19.882Z,8.75
2022-10-13T04:43:48.933Z,8.73
2022-10-13T04:46:19.349Z,8.74
2022-10-13T04:48:49.055Z,8.75
2022-10-13T04:51:18.863Z,8.73
2022-10-13T04:53:46.649Z,8.75
2022-10-13T04:56:17.335Z,8.73
2022-10-13T04:58:46.945Z,8.75
2022-10-13T05:01:21.499Z,8.73
2022-10-13T05:03:54.133Z,8.74
2022-10-13T05:06:24.559Z,8.76
2022-10-13T05:08:57.009Z,8.78
2022-10-13T05:11:26.507Z,8.80
2022-10-13T05:13:54.985Z,8.79
2022-10-13T05:16:23.503Z,8.86
2022-10-13T05:18:54.526Z,8.87
2022-10-13T05:21:24.274Z,8.89
2022-10-13T05:23:54.185Z,8.89
2022-10-13T05:26:23.712Z,8.91
2022-10-13T05:28:51.519Z,8.88
2022-10-13T05:31:21.409Z,8.90
2022-10-13T05:33:50.354Z,8.90
2022-10-13T05:36:30.000Z,8.93
2022-10-13T05:38:59.479Z,8.89
2022-10-13T05:41:28.882Z,8.89
2022-10-13T05:43:59.417Z,8.90
2022-10-13T05:46:27.185Z,8.90
2022-10-13T05:48:55.183Z,8.88
2022-10-13T05:51:28.008Z,8.89
2022-10-13T05:54:01.851Z,8.92
2022-10-13T05:56:36.219Z,8.93
2022-10-13T05:59:07.151Z,8.92
2022-10-13T06:01:38.967Z,8.91
2022-10-13T06:04:12.689Z,8.89
2022-10-13T06:06:41.971Z,8.89
2022-10-13T06:09:09.910Z,8.94
2022-10-13T06:11:37.627Z,8.98
2022-10-13T06:14:05.454Z,8.97
2022-10-13T06:16:33.220Z,8.95
2022-10-13T06:19:01.045Z,8.95
2022-10-13T06:21:28.775Z,9.02
2022-10-13T06:23:57.912Z,9.01
2022-10-13T06:26:25.663Z,9.01
2022-10-13T06:28:58.415Z,9.03
2022-10-13T06:31:28.648Z,9.01
2022-10-13T06:33:56.366Z,9.01
2022-10-13T06:36:24.088Z,9.04
2022-10-13T06:38:51.832Z,9.06
2022-10-13T06:41:23.585Z,9.07
2022-10-13T06:43:51.311Z,9.11
2022-10-13T06:46:19.024Z,9.17
2022-10-13T06:48:47.879Z,9.19
2022-10-13T06:51:15.541Z,9.18
2022-10-13T06:53:43.637Z,9.19
2022-10-13T06:56:11.482Z,9.25
2022-10-13T06:58:40.711Z,9.32
2022-10-13T07:01:09.182Z,9.38
2022-10-13T07:03:36.932Z,9.50
2022-10-13T07:06:06.737Z,9.55
2022-10-13T07:08:35.561Z,9.58
2022-10-13T07:11:12.977Z,9.69
2022-10-13T07:13:46.835Z,9.70
2022-10-13T07:16:18.013Z,9.73
2022-10-13T07:18:48.710Z,9.69
2022-10-13T07:21:16.669Z,9.72
2022-10-13T07:23:44.488Z,9.78
2022-10-13T07:26:14.008Z,9.84
2022-10-13T07:28:42.164Z,9.85
2022-10-13T07:31:13.689Z,9.88
2022-10-13T07:33:42.624Z,9.82
2022-10-13T07:36:11.267Z,9.92
2022-10-13T07:38:39.327Z,10.01
2022-10-13T07:41:10.770Z,10.13
2022-10-13T07:43:39.061Z,10.20
2022-10-13T07:46:08.625Z,10.29
2022-10-13T07:48:37.785Z,10.40
2022-10-13T07:51:07.200Z,10.48
2022-10-13T07:53:35.509Z,10.50
2022-10-13T07:56:04.785Z,10.52
2022-10-13T07:58:32.677Z,10.61
2022-10-13T08:01:01.807Z,10.69
2022-10-13T08:03:30.862Z,10.76
2022-10-13T08:06:01.661Z,10.73
2022-10-13T08:08:29.782Z,11.04
2022-10-13T08:11:02.371Z,11.33
2022-10-13T08:13:33.176Z,11.41
2022-10-13T08:16:08.959Z,11.46
2022-10-13T08:18:36.879Z,11.47
2022-10-13T08:23:54.749Z,11.81
2022-10-13T08:26:25.132Z,11.83
2022-10-13T08:31:41.274Z,12.01
2022-10-13T08:34:09.659Z,12.04
2022-10-13T08:36:39.734Z,12.14
2022-10-13T08:39:08.384Z,12.37
2022-10-13T08:41:39.973Z,12.68
2022-10-13T08:47:12.224Z,13.43
2022-10-13T08:49:42.016Z,13.44
2022-10-13T08:52:18.353Z,13.47
2022-10-13T08:54:46.483Z,13.57
2022-10-13T08:57:14.666Z,13.33
2022-10-13T08:59:42.478Z,13.41
2022-10-13T09:02:13.643Z,13.49
2022-10-13T09:04:44.416Z,13.65
2022-10-13T09:07:19.218Z,13.64
2022-10-13T09:09:51.739Z,13.73
2022-10-13T09:12:24.261Z,13.58
2022-10-13T09:14:59.901Z,13.46
2022-10-13T09:17:28.529Z,13.36
2022-10-13T09:20:01.716Z,13.28
2022-10-13T09:22:32.314Z,13.41
2022-10-13T09:25:11.427Z,13.49
2022-10-13T09:27:48.704Z,13.34
2022-10-13T09:30:27.724Z,13.49
2022-10-13T09:33:15.793Z,13.77
2022-10-13T09:35:46.289Z,13.67
2022-10-13T09:38:17.838Z,13.79
2022-10-13T09:40:58.721Z,13.86
2022-10-13T09:43:33.946Z,13.94
2022-10-13T09:46:03.479Z,14.07
2022-10-13T09:48:34.101Z,13.99
2022-10-13T09:51:02.731Z,14.24
2022-10-13T09:53:34.701Z,14.09
2022-10-13T09:56:11.056Z,14.22
2022-10-13T10:01:19.900Z,14.33
2022-10-13T10:03:49.962Z,14.31
2022-10-13T10:06:18.703Z,14.19
2022-10-13T10:09:04.803Z,14.48
2022-10-13T10:11:38.539Z,14.50
2022-10-13T10:14:18.096Z,14.63
2022-10-13T10:16:51.204Z,14.61
2022-10-13T10:19:23.425Z,14.72
2022-10-13T10:22:03.838Z,14.76
2022-10-13T10:24:44.722Z,15.02
2022-10-13T10:29:54.050Z,15.03
2022-10-13T10:32:31.508Z,14.92
2022-10-13T10:35:05.020Z,15.15
2022-10-13T10:37:50.303Z,15.06
2022-10-13T10:40:33.581Z,15.11
2022-10-13T10:43:23.461Z,15.57
2022-10-13T10:45:51.192Z,15.75
2022-10-13T10:48:25.142Z,15.69
2022-10-13T10:50:54.261Z,15.92
2022-10-13T10:53:32.722Z,16.17
2022-10-13T10:56:09.456Z,15.96
2022-10-13T10:58:44.115Z,16.03
2022-10-13T11:01:28.457Z,16.30
2022-10-13T11:04:02.167Z,16.55
2022-10-13T11:06:35.349Z,16.37
2022-10-13T11:09:04.525Z,16.16
2022-10-13T11:11:43.329Z,16.46
2022-10-13T11:14:37.868Z,16.31
2022-10-13T11:17:21.151Z,16.56
2022-10-13T11:19:50.019Z,16.63
2022-10-13T11:22:21.456Z,16.55
2022-10-13T11:24:55.407Z,16.64
2022-10-13T11:27:39.539Z,16.55
2022-10-13T11:30:42.057Z,16.58
2022-10-13T11:33:52.517Z,16.95
2022-10-13T11:36:31.903Z,17.08
2022-10-13T11:39:09.944Z,17.09
2022-10-13T11:41:48.949Z,16.98
2022-10-13T11:47:04.010Z,17.41
2022-10-13T11:49:52.310Z,17.33
2022-10-13T11:52:34.785Z,17.22
2022-10-13T11:55:07.427Z,17.16
2022-10-13T11:57:35.397Z,17.32
2022-10-13T12:00:05.574Z,17.19
2022-10-13T12:02:53.519Z,17.31
2022-10-13T12:05:24.363Z,17.36
2022-10-13T12:07:54.651Z,17.46
2022-10-13T12:10:26.342Z,17.04
2022-10-13T12:12:54.581Z,16.90
2022-10-13T12:15:36.706Z,16.67
2022-10-13T12:18:21.483Z,16.89
2022-10-13T12:20:53.867Z,17.01
2022-10-13T12:23:22.463Z,17.11
2022-10-13T12:25:56.708Z,17.17
2022-10-13T12:28:26.647Z,17.11
2022-10-13T12:30:57.285Z,17.27
2022-10-13T12:33:29.370Z,17.16
2022-10-13T12:35:57.494Z,16.91
2022-10-13T12:38:25.280Z,16.77
2022-10-13T12:40:54.757Z,17.01
2022-10-13T12:43:26.740Z,17.08
2022-10-13T12:45:55.863Z,16.99
2022-10-13T12:48:34.966Z,17.11
2022-10-13T12:51:22.334Z,17.19
2022-10-13T12:53:50.317Z,17.17
2022-10-13T12:56:31.036Z,16.99
2022-10-13T12:58:59.888Z,16.79
2022-10-13T13:01:36.192Z,16.83
2022-10-13T13:04:18.087Z,16.98
2022-10-13T13:06:56.671Z,17.16
2022-10-13T13:09:28.956Z,16.96
2022-10-13T13:12:21.865Z,16.92
2022-10-13T13:14:52.330Z,16.87
2022-10-13T13:17:52.874Z,16.68
2022-10-13T13:20:26.636Z,16.60
2022-10-13T13:22:54.432Z,17.04
2022-10-13T13:25:22.160Z,17.23
2022-10-13T13:27:50.103Z,17.25
2022-10-13T13:30:20.403Z,17.28
2022-10-13T13:32:50.540Z,17.32
2022-10-13T13:35:18.403Z,17.22
2022-10-13T13:37:49.538Z,17.16
2022-10-13T13:40:19.355Z,17.15
2022-10-13T13:42:47.165Z,16.80
2022-10-13T13:45:15.558Z,16.80
2022-10-13T13:47:43.824Z,17.03
2022-10-13T13:50:17.071Z,16.92
2022-10-13T13:52:54.962Z,16.88
2022-10-13T13:55:23.290Z,16.56
2022-10-13T13:57:51.097Z,16.71
2022-10-13T14:00:19.623Z,16.62
2022-10-13T14:02:54.084Z,16.29
2022-10-13T14:05:23.546Z,16.16
2022-10-13T14:07:54.508Z,16.36
2022-10-13T14:10:22.486Z,16.39
2022-10-13T14:12:50.289Z,16.48
2022-10-13T14:15:18.382Z,16.56
2022-10-13T14:17:46.097Z,16.51
2022-10-13T14:20:13.882Z,16.53
2022-10-13T14:22:43.701Z,16.47
2022-10-13T14:25:12.179Z,16.41
2022-10-13T14:27:39.964Z,16.25
2022-10-13T14:30:10.543Z,16.03
2022-10-13T14:32:38.676Z,15.87
2022-10-13T14:35:07.374Z,15.75
2022-10-13T14:37:35.668Z,15.72
2022-10-13T14:40:05.777Z,15.65
2022-10-13T14:42:33.777Z,15.48
2022-10-13T14:45:06.529Z,15.48
2022-10-13T14:47:34.263Z,15.33
2022-10-13T14:50:02.343Z,15.37
2022-10-13T14:52:30.386Z,15.27
2022-10-13T14:54:58.076Z,15.31
2022-10-13T14:57:27.271Z,15.29
2022-10-13T14:59:58.052Z,15.19
2022-10-13T15:02:29.336Z,15.24
2022-10-13T15:04:57.807Z,15.10
2022-10-13T15:07:25.892Z,15.10
2022-10-13T15:10:04.788Z,15.10
2022-10-13T15:12:34.619Z,15.14
2022-10-13T15:15:02.414Z,15.19
2022-10-13T15:17:31.208Z,15.20
2022-10-13T15:19:59.008Z,15.14
2022-10-13T15:22:27.083Z,15.16
2022-10-13T15:24:54.821Z,15.11
2022-10-13T15:27:22.925Z,15.00
2022-10-13T15:29:52.086Z,14.98
2022-10-13T15:32:21.021Z,15.03
2022-10-13T15:34:55.729Z,14.89
2022-10-13T15:37:23.450Z,14.94
2022-10-13T15:39:56.245Z,14.80
2022-10-13T15:42:25.283Z,14.77
2022-10-13T15:45:11.072Z,14.72
2022-10-13T15:47:39.666Z,14.66
2022-10-13T15:50:08.604Z,14.66
2022-10-13T15:52:39.581Z,14.68
2022-10-13T15:55:08.039Z,14.69
2022-10-13T15:57:35.722Z,14.66
2022-10-13T16:00:05.842Z,14.68
2022-10-13T16:02:40.238Z,14.58
2022-10-13T16:05:10.173Z,14.60
2022-10-13T16:07:39.121Z,14.49
2022-10-13T16:10:08.060Z,14.57
2022-10-13T16:12:35.803Z,14.46
2022-10-13T16:15:05.143Z,14.46
2022-10-13T16:17:32.912Z,14.37
2022-10-13T16:20:00.661Z,14.39
2022-10-13T16:22:28.756Z,14.38
2022-10-13T16:24:56.434Z,14.31
2022-10-13T16:27:24.600Z,14.37
2022-10-13T16:29:52.276Z,14.30
2022-10-13T16:32:21.827Z,14.27
2022-10-13T16:34:49.774Z,14.31
2022-10-13T16:37:20.268Z,14.27
2022-10-13T16:39:51.735Z,14.23
2022-10-13T16:42:19.703Z,14.23
2022-10-13T16:44:47.538Z,14.22
2022-10-13T16:47:18.416Z,14.18
2022-10-13T16:49:47.987Z,14.15
2022-10-13T16:52:17.256Z,14.12
2022-10-13T16:54:45.075Z,14.11
2022-10-13T16:57:12.883Z,14.07
2022-10-13T16:59:40.573Z,14.07
2022-10-13T17:02:11.420Z,14.06
2022-10-13T17:04:42.340Z,14.01
2022-10-13T17:07:11.605Z,13.97
2022-10-13T17:09:39.289Z,13.97
2022-10-13T17:12:07.947Z,13.96
2022-10-13T17:14:35.631Z,13.98
2022-10-13T17:17:03.794Z,14.00
2022-10-13T17:19:31.887Z,13.96
2022-10-13T17:21:59.580Z,13.96
2022-10-13T17:24:29.824Z,13.93
2022-10-13T17:26:58.194Z,13.97
2022-10-13T17:29:26.171Z,13.93
2022-10-13T17:31:54.408Z,13.81
2022-10-13T17:34:23.189Z,13.84
2022-10-13T17:36:52.308Z,13.80
2022-10-13T17:39:20.017Z,13.80
2022-10-13T17:41:49.283Z,13.80
2022-10-13T17:44:20.388Z,13.91
2022-10-13T17:46:49.719Z,13.94
2022-10-13T17:49:18.158Z,13.97
2022-10-13T17:51:46.518Z,13.94
2022-10-13T17:54:16.437Z,13.94
2022-10-13T17:56:45.243Z,13.99
2022-10-13T17:59:15.166Z,13.96
2022-10-13T18:01:43.964Z,13.86
2022-10-13T18:04:13.170Z,13.85
2022-10-13T18:06:43.721Z,13.79
2022-10-13T18:09:13.803Z,13.77
2022-10-13T18:11:47.035Z,13.84
2022-10-13T18:14:19.897Z,13.86
2022-10-13T18:16:49.771Z,13.78
2022-10-13T18:19:17.950Z,13.76
2022-10-13T18:21:45.788Z,13.78
2022-10-13T18:24:13.735Z,13.70
2022-10-13T18:26:41.916Z,13.74
2022-10-13T18:29:12.004Z,13.76
2022-10-13T18:31:42.418Z,13.79
2022-10-13T18:34:14.502Z,13.72
2022-10-13T18:36:43.633Z,13.69
2022-10-13T18:39:14.116Z,13.74
2022-10-13T18:41:46.359Z,13.75
2022-10-13T18:44:14.205Z,13.75
2022-10-13T18:46:43.516Z,13.74
2022-10-13T18:49:13.670Z,13.78
2022-10-13T18:51:42.967Z,13.80
2022-10-13T18:54:10.957Z,13.76
2022-10-13T18:56:38.907Z,13.72
2022-10-13T18:59:07.906Z,13.77
2022-10-13T19:01:36.859Z,13.75
2022-10-13T19:04:06.306Z,13.76
2022-10-13T19:06:35.398Z,13.71
2022-10-13T19:09:06.477Z,13.75
2022-10-13T19:11:37.987Z,13.81
2022-10-13T19:14:08.826Z,13.81
2022-10-13T19:16:38.483Z,13.81
2022-10-13T19:19:08.981Z,13.73
2022-10-13T19:21:37.652Z,13.73
2022-10-13T19:24:06.412Z,13.68
2022-10-13T19:26:35.812Z,13.64
2022-10-13T19:29:05.999Z,13.56
2022-10-13T19:31:34.923Z,13.59
2022-10-13T19:34:09.520Z,13.62
2022-10-13T19:36:40.041Z,13.64
2022-10-13T19:39:11.828Z,13.67
2022-10-13T19:41:40.002Z,13.64
2022-10-13T19:44:07.919Z,13.64
2022-10-13T19:46:44.288Z,13.68
2022-10-13T19:49:16.099Z,13.68
2022-10-13T19:51:48.996Z,13.66
2022-10-13T19:54:18.524Z,13.64
2022-10-13T19:56:48.098Z,13.64
2022-10-13T19:59:17.388Z,13.65
2022-10-13T20:01:45.254Z,13.66
2022-10-13T20:04:20.358Z,13.67
2022-10-13T20:06:49.213Z,13.67
2022-10-13T20:09:17.707Z,13.67
2022-10-13T20:11:46.472Z,13.69
2022-10-13T20:14:14.532Z,13.68
2022-10-13T20:16:42.875Z,13.68
2022-10-13T20:19:12.984Z,13.65
2022-10-13T20:21:42.774Z,13.64
2022-10-13T20:24:11.960Z,13.62
2022-10-13T20:26:40.813Z,13.59
2022-10-13T20:29:09.017Z,13.54
2022-10-13T20:31:37.337Z,13.56
2022-10-13T20:34:05.217Z,13.53
2022-10-13T20:36:38.326Z,13.47
2022-10-13T20:39:08.854Z,13.52
2022-10-13T20:41:37.076Z,13.52
2022-10-13T20:44:05.197Z,13.51
2022-10-13T20:46:34.316Z,13.50
2022-10-13T20:49:11.473Z,13.46
2022-10-13T20:51:40.304Z,13.44
2022-10-13T20:54:09.767Z,13.41
2022-10-13T20:56:37.567Z,13.37
2022-10-13T20:59:07.607Z,13.34
2022-10-13T21:01:36.980Z,13.36
2022-10-13T21:04:05.913Z,13.40
2022-10-13T21:06:34.396Z,13.37
2022-10-13T21:09:02.513Z,13.35
2022-10-13T21:11:31.698Z,13.39
2022-10-13T21:13:59.695Z,13.38
2022-10-13T21:16:29.180Z,13.35
2022-10-13T21:18:58.570Z,13.35
2022-10-13T21:21:28.289Z,13.33
2022-10-13T21:23:58.307Z,13.30
2022-10-13T21:26:27.916Z,13.29
2022-10-13T21:28:57.664Z,13.24
2022-10-13T21:31:26.382Z,13.16
2022-10-13T21:33:55.262Z,13.18
2022-10-13T21:36:25.069Z,13.15
2022-10-13T21:38:54.660Z,13.10
2022-10-13T21:41:23.392Z,13.12
2022-10-13T21:43:51.461Z,13.15
2022-10-13T21:46:23.242Z,13.15
2022-10-13T21:48:55.187Z,13.13
2022-10-13T21:51:24.807Z,13.16
2022-10-13T21:53:55.129Z,13.13
2022-10-13T21:56:23.766Z,13.09
2022-10-13T21:58:51.523Z,13.14
2022-10-13T22:01:21.772Z,13.09
2022-10-13T22:03:53.289Z,13.11
2022-10-13T22:06:21.480Z,13.05
2022-10-13T22:08:50.984Z,13.06
2022-10-13T22:11:26.130Z,13.04
2022-10-13T22:13:54.548Z,13.07
2022-10-13T22:16:25.687Z,13.05
2022-10-13T22:18:54.421Z,13.04
2022-10-13T22:21:24.638Z,13.04
2022-10-13T22:23:52.469Z,13.05
2022-10-13T22:26:20.521Z,13.07
2022-10-13T22:28:51.534Z,13.07
2022-10-13T22:31:19.828Z,13.09
2022-10-13T22:33:49.073Z,13.04
2022-10-13T22:36:19.062Z,13.02
2022-10-13T22:38:48.819Z,12.92
2022-10-13T22:41:18.775Z,12.91
2022-10-13T22:43:50.279Z,12.86
2022-10-13T22:46:20.469Z,12.74
2022-10-13T22:48:50.178Z,12.64
2022-10-13T22:51:20.015Z,12.57
2022-10-13T22:53:48.654Z,12.56
2022-10-13T22:56:18.859Z,12.55
2022-10-13T22:58:50.770Z,12.57
2022-10-13T23:01:19.034Z,12.53
2022-10-13T23:03:49.642Z,12.57
2022-10-13T23:06:19.407Z,12.63
2022-10-13T23:08:47.172Z,12.61
2022-10-13T23:11:15.653Z,12.59
2022-10-13T23:13:43.427Z,12.58
2022-10-13T23:16:13.530Z,12.51
2022-10-13T23:18:43.912Z,12.51
2022-10-13T23:21:27.091Z,12.56
2022-10-13T23:23:56.149Z,12.48
2022-10-13T23:26:23.968Z,12.55
2022-10-13T23:28:52.475Z,12.54
2022-10-13T23:31:20.240Z,12.56
2022-10-13T23:33:48.434Z,12.56
2022-10-13T23:36:18.593Z,12.48
2022-10-13T23:38:50.127Z,12.51
2022-10-13T23:41:17.937Z,12.50
2022-10-13T23:43:45.605Z,12.48
2022-10-13T23:46:13.440Z,12.42
2022-10-13T23:48:41.479Z,12.38
2022-10-13T23:51:11.639Z,12.48
2022-10-13T23:53:40.187Z,12.37
2022-10-13T23:56:11.085Z,12.34
2022-10-13T23:58:40.026Z,12.36
